Tikaboo Peak, Nevada Weather observations

Data are for 10 minute period ending at time listed.
 Day   Time   Solar   Ave.   Ave.  Ave.  Vector  Max.   Baro.   Total    
  of    of     Rad.   Air    Rel.  Wind   Wind   Wind  Press.  Precip.   
Year   Day            Temp.  Hum.  Speed  Dir.   Gust                    
2018   (PST)  Kw/m2    F      %     mph   deg.    mph    mb.     in.     
-------------------------------------------------------------------------
 200    8:00   0.68   76.4    44    3.0     3     5.9   770.0    0.00 
 200    8:10   0.71   76.6    44    3.3     8     6.4   769.9    0.00 
 200    8:20   0.74   77.7    42    5.9     6     8.4   770.1    0.00 
 200    8:30   0.77   77.5    42    4.8     7     7.3   770.0    0.00 
 200    8:40   0.80   77.3    43    5.0     9     9.6   770.1    0.00 
 200    8:50   0.82   77.5    42    3.9     7     7.8   770.1    0.00 
 200    9:00   0.85   77.5    43    1.4    61     3.7   770.2    0.00 
 200    9:10   0.87   78.1    42    3.9    47     8.8   770.2    0.00 
 200    9:20   0.89   78.4    42    1.8    90     6.8   770.3    0.00 
 200    9:30   0.91   79.0    41    1.8    87     5.9   770.3    0.00 
 200    9:40   0.93   79.5    40    1.1    83     5.0   770.4    0.00 
 200    9:50   0.95   79.7    40    1.6   164     5.0   770.4    0.00 
 200   10:00   0.96   79.9    40    1.6    74     6.1   770.4    0.00 
 200   10:10   0.98   80.4    39    2.5    22     8.2   770.5    0.00 
 200   10:20   0.99   82.2    37    1.3   100     5.1   770.4    0.00 
 200   10:30   1.00   82.9    35    1.4    74     4.3   770.4    0.00 
 200   10:40   1.01   83.2    34    2.4    45     7.2   770.4    0.00 
 200   10:50   1.02   83.1    34    1.1    82     5.3   770.2    0.00 
 200   11:00   1.03   82.6    34    2.0   152     8.0   770.2    0.00 
 200   11:10   1.04   82.2    36    2.0    47     6.6   770.2    0.00 
 200   11:20   1.05   82.7    35    3.7    27     9.5   770.1    0.00 
 200   11:30   1.06   83.5    34    3.2    44     6.5   770.1    0.00 
 200   11:40   1.09   83.3    34    5.5    24    11.6   770.0    0.00 
 200   11:50   1.12   82.6    34    7.1     3    12.9   770.0    0.00 
 200   12:00   0.96   83.2    33    7.1     0    16.1   769.9    0.00 
 200   12:10   1.03   81.9    34   10.7   349    16.2   769.8    0.00 
 200   12:20   1.16   82.1    34    6.4   341    15.3   769.6    0.00 
 200   12:30   0.66   81.3    34    9.0     9    17.4   769.4    0.00 
 200   12:40   0.56   82.0    33    7.4    12    14.7   769.3    0.00 
 200   12:50   0.33   79.4    37   11.0     1    21.8   769.2    0.00 
 200   13:00   0.29   78.2    38   10.4     1    20.9   769.1    0.00 
 200   13:10   0.33   77.0    40   12.1     2    22.3   768.9    0.00 
 200   13:20   0.53   77.6    39   11.6     1    19.6   768.9    0.00 
 200   13:30   0.82   78.7    38   12.9   358    25.6   768.7    0.00 
 200   13:40   0.92   79.7    36   15.3     3    24.2   768.5    0.00 
 200   13:50   0.96   80.1    36   13.4     7    22.4   768.4    0.00 
 200   14:00   0.96   80.7    36   11.9    13    20.3   768.6    0.00 
 200   14:10   0.94   82.1    34   10.6    12    20.0   768.5    0.00 
 200   14:20   0.92   82.7    33   12.3   359    18.6   768.4    0.00 
 200   14:30   0.91   82.7    33   10.2     9    17.5   768.3    0.00 
 200   14:40   0.69   81.3    34    8.5    48    19.2   768.0    0.00 
 200   14:50   0.33   75.5    40   11.2   109    21.5   768.2    0.00 
 200   15:00   0.18   73.2    43    9.1   110    18.9   768.2    0.00 
 200   15:10   0.14   72.1    46    2.6    94    17.4   768.2    0.00 
 200   15:20   0.14   70.6    49    5.6   109    19.6   768.0    0.00 
 200   15:30   0.14   69.3    50    5.8   115    21.4   768.0    0.00 
 200   15:40   0.17   69.0    51    4.8    96    18.2   767.9    0.00 
 200   15:50   0.33   69.9    49    8.9    98    16.1   767.7    0.00 
 200   16:00   0.51   73.6    41   11.4    94    19.0   767.7    0.00 
 200   16:10   0.44   75.8    38    7.1   104    16.6   767.7    0.00 
 200   16:20   0.26   76.5    36    4.4   106    15.3   767.7    0.00 
 200   16:30   0.38   75.9    34    2.2   111    10.4   767.8    0.00 
 200   16:40   0.19   75.9    32    2.6    98    14.6   767.7    0.00 
 200   16:50   0.21   74.5    32    4.2   109    14.3   767.6    0.00 
 200   17:00   0.17   74.4    32    2.2    82     7.6   767.8    0.00 
 200   17:10   0.14   74.8    32    5.7    90    10.7   767.8    0.00 
 200   17:20   0.14   74.4    32    3.2   100    10.4   767.9    0.00 
 200   17:30   0.09   73.5    33    6.5   109    12.6   767.7    0.00 
 200   17:40   0.06   72.6    33    3.3   116    12.6   767.8    0.00 
 200   17:50   0.06   72.6    32    9.0   110    14.3   767.8    0.00 
 200   18:00   0.05   72.8    32   12.0   128    17.7   768.0    0.00 
 200   18:10   0.03   72.2    33   14.9   161    18.5   767.9    0.00 
 200   18:20   0.02   71.1    36   11.7   195    15.8   768.1    0.00 
 200   18:30   0.01   70.6    38   17.3   195    22.6   768.1    0.00 
 200   18:40   0.01   69.6    43   21.4   199    33.8   767.9    0.00 
 200   18:50   0.01   68.5    46   20.1   199    30.5   767.9    0.00 
 200   19:00   0.00   68.0    47   17.7   204    24.3   768.3    0.00 
 200   19:10   0.00   68.3    46   18.0   194    26.0   768.1    0.00 
 200   19:20   0.00   67.6    49   17.2   190    22.3   768.2    0.00 
 200   19:30   0.00   66.3    52   18.8   187    23.3   768.3    0.00 
 200   19:40   0.00   64.6    56   18.8   188    24.8   768.4    0.00 
 200   19:50   0.00   64.6    54   19.6   192    22.0   768.7    0.00 
 200   20:00   0.00   65.9    50   18.6   187    24.5   769.0    0.00 
 200   20:10   0.00   65.9    50   22.1   175    26.5   768.9    0.00 
 200   20:20   0.00   63.8    57   24.1   190    30.2   768.8    0.00 
 200   20:30   0.00   63.3    56   27.5   191    37.8   768.6    0.00 
 200   20:40   0.00   65.1    50   23.8   190    35.4   768.7    0.00 
 200   20:50   0.00   65.5    50   19.4   198    29.7   769.1    0.00 
 200   21:00   0.00   64.7    52   21.6   209    29.5   769.4    0.00 
 200   21:10   0.00   63.3    56   22.7   208    31.2   769.5    0.00 
 200   21:20   0.00   62.7    56   23.1   218    32.2   769.5    0.00 
 200   21:30   0.00   62.7    55   25.1   217    33.3   769.5    0.00 
 200   21:40   0.00   62.7    55   26.7   215    35.7   769.4    0.00 
 200   21:50   0.00   62.9    54   25.9   223    34.8   769.2    0.00 
 200   22:00   0.00   62.2    57   24.8   244    31.9   769.2    0.00 
 200   22:10   0.00   61.8    58   25.4   244    30.0   769.0    0.00 
 200   22:20   0.00   61.3    60   24.9   248    29.5   768.9    0.00 
 200   22:30   0.00   60.4    65   24.2   249    27.2   768.9    0.00 
 200   22:40   0.00   59.1    69   26.6   251    29.8   768.8    0.00 
 200   22:50   0.00   58.9    70   24.0   249    27.8   768.9    0.00 
 200   23:00   0.00   59.2    69   24.9   250    27.5   769.0    0.00 
 200   23:10   0.00   59.8    65   25.1   251    29.0   768.9    0.00 
 200   23:20   0.00   59.3    68   23.5   253    27.3   768.7    0.00 
 200   23:30   0.00   59.0    68   21.3   259    27.1   768.6    0.00 
 200   23:40   0.00   59.9    64   20.3   267    23.7   768.6    0.00 
 200   23:50   0.00   60.5    60   13.8   270    19.4   768.7    0.00 
 201    0:00   0.00   61.1    58    6.9   308    13.7   768.6    0.00 
 201    0:10   0.00   60.9    58   12.5   287    14.2   768.4    0.00 
 201    0:20   0.00   62.2    54    9.7   312    13.9   768.5    0.00 
 201    0:30   0.00   61.9    56   11.3   338    14.6   768.4    0.00 
 201    0:40   0.00   62.0    56    9.6   352    14.6   768.3    0.00 
 201    0:50   0.00   61.7    57   10.4   350    12.5   768.2    0.00 
 201    1:00   0.00   62.0    55   10.5   344    11.6   768.1    0.00 
 201    1:10   0.00   62.3    55   11.2   345    14.9   768.0    0.00 
 201    1:20   0.00   62.1    55   13.8   348    15.2   767.9    0.00 
 201    1:30   0.00   62.0    56   13.3   340    15.3   767.8    0.00 
 201    1:40   0.00   61.8    56   14.4   334    17.8   767.7    0.00 
 201    1:50   0.00   62.2    54   15.4   330    18.3   767.4    0.00 
 201    2:00   0.00   62.8    52   12.2   328    15.3   767.4    0.00 
 201    2:10   0.00   62.9    51   11.6   324    14.6   767.3    0.00 
 201    2:20   0.00   62.7    52   12.9   326    16.4   767.2    0.00 
 201    2:30   0.00   62.9    51   10.2   336    12.8   767.2    0.00 
 201    2:40   0.00   63.2    50   10.7   353    13.8   767.1    0.00 
 201    2:50   0.00   63.4    50   10.5   357    13.7   767.2    0.00 
 201    3:00   0.00   62.3    54    7.3   349     9.8   767.2    0.00 
 201    3:10   0.00   61.7    54    7.5    15     8.9   767.1    0.00 
 201    3:20   0.00   63.1    48    8.2    32    11.3   767.2    0.00 
 201    3:30   0.00   63.2    51    9.8    46    14.2   767.3    0.00 
 201    3:40   0.00   62.9    52   11.6    47    14.3   767.3    0.00 
 201    3:50   0.00   62.7    53    9.5    58    12.6   767.3    0.00 
 201    4:00   0.00   62.7    52   10.7    41    14.2   767.4    0.00 
 201    4:10   0.00   63.6    48   12.2    40    15.9   767.4    0.00 
 201    4:20   0.00   64.0    48    9.6    49    13.2   767.5    0.00 
 201    4:30   0.00   63.9    48   10.4    34    13.6   767.6    0.00 
 201    4:40   0.00   63.8    48   11.1    43    13.0   767.6    0.00 
 201    4:50   0.01   63.5    49   11.6    42    15.5   767.6    0.00 
 201    5:00   0.01   64.2    47   13.7    44    16.9   767.7    0.00 
 201    5:10   0.02   65.1    46   14.1    44    17.7   767.6    0.00 
 201    5:20   0.05   65.4    46   15.0    42    20.5   767.7    0.00 
 201    5:30   0.08   65.6    48   15.5    45    19.6   767.8    0.00 
 201    5:40   0.09   65.8    48   15.3    45    20.0   767.9    0.00 
 201    5:50   0.09   65.5    50   15.0    43    19.4   767.9    0.00 
 201    6:00   0.11   65.4    52   15.2    42    18.6   768.0    0.00 
 201    6:10   0.17   65.8    53   14.4    43    19.4   768.0    0.00 
 201    6:20   0.24   66.8    52   13.3    40    18.6   768.0    0.00 
 201    6:30   0.34   68.6    50   10.1    39    15.9   768.1    0.00 
 201    6:40   0.39   69.9    48    9.7    42    15.6   768.1    0.00 
 201    6:50   0.33   69.7    48   10.8    40    14.8   768.2    0.00 
 201    7:00   0.41   69.4    49   11.2    41    16.7   768.3    0.00 
 201    7:10   0.37   68.9    49   10.7    38    15.8   768.2    0.00 
 201    7:20   0.47   68.8    50   11.1    28    15.9   768.3    0.00 
 201    7:30   0.52   69.1    49    8.0    28    13.7   768.4    0.00 
 201    7:40   0.51   69.6    48    7.8    19    13.4   768.5    0.00 
 201    7:50   0.55   69.5    48    9.5    20    14.9   768.5    0.00 

Return to Tikaboo Peak graphs page.


Western Regional Climate Center,wrcc@dri.edu